Time;durP1;ratioP1;P1;durP2;ratioP2;P2;SDS_P1;SDS_P2;PMS_P1;PMS_P2;Temp;Humidity;BMP_temperature;BMP_pressure;BME280_temperature;BME280_humidity;BME280_pressure;Samples;Min_cycle;Max_cycle;Signal;HPM_P1;HPM_P2
2024/02/08 00:02:23;;;;;;;445.00;420.47;;;4.30;99.90;;;;;;5011494;28;20492;-66
2024/02/08 00:04:50;;;;;;;452.60;426.87;;;4.30;99.90;;;;;;5014535;28;20456;-66
2024/02/08 00:07:17;;;;;;;455.40;430.30;;;4.30;99.90;;;;;;5011522;28;20464;-66
2024/02/08 00:09:45;;;;;;;462.17;436.10;;;4.30;99.90;;;;;;5011630;28;20461;-66
2024/02/08 00:12:12;;;;;;;470.17;443.77;;;4.30;99.90;;;;;;5011631;28;20495;-67
2024/02/08 00:14:39;;;;;;;485.23;457.30;;;4.30;99.90;;;;;;5011972;28;20459;-67
2024/02/08 00:17:06;;;;;;;492.37;462.97;;;4.30;99.90;;;;;;5011404;28;20461;-67
2024/02/08 00:19:33;;;;;;;500.17;469.70;;;4.30;99.90;;;;;;5011164;28;20453;-66
2024/02/08 00:22:00;;;;;;;513.87;481.47;;;4.30;99.90;;;;;;5010795;28;20445;-66
2024/02/08 00:24:30;;;;;;;526.03;493.77;;;4.30;99.90;;;;;;5012193;28;20463;-67
2024/02/08 00:26:59;;;;;;;550.40;515.73;;;4.30;99.90;;;;;;5008328;28;20544;-65
2024/02/08 00:29:27;;;;;;;545.63;511.73;;;4.30;99.90;;;;;;5011748;28;20461;-66
2024/02/08 00:31:53;;;;;;;543.60;509.37;;;4.30;99.90;;;;;;5010980;28;20485;-67
2024/02/08 00:34:20;;;;;;;571.37;535.97;;;4.30;99.90;;;;;;5011528;28;20459;-68
2024/02/08 00:36:49;;;;;;;588.37;551.77;;;4.30;99.90;;;;;;5011224;28;20449;-69
2024/02/08 00:39:16;;;;;;;606.90;568.40;;;4.30;99.90;;;;;;5002000;28;20453;-68
2024/02/08 00:41:48;;;;;;;612.57;572.97;;;4.30;99.90;;;;;;5009003;28;20836;-69
2024/02/08 00:44:17;;;;;;;636.20;595.47;;;4.30;99.90;;;;;;5007288;28;20488;-69
2024/02/08 00:46:44;;;;;;;662.80;619.73;;;4.30;99.90;;;;;;5011027;28;20449;-68
2024/02/08 00:49:11;;;;;;;674.27;630.17;;;4.30;99.90;;;;;;5007408;28;20449;-68
2024/02/08 00:51:37;;;;;;;672.57;627.60;;;4.20;99.90;;;;;;5010809;28;20460;-69
2024/02/08 00:54:04;;;;;;;692.07;645.57;;;4.30;99.90;;;;;;5000355;28;20469;-69
2024/02/08 00:56:31;;;;;;;711.97;663.40;;;4.20;99.90;;;;;;5003906;28;20456;-67
2024/02/08 00:58:58;;;;;;;713.63;664.97;;;4.20;99.90;;;;;;5010776;28;20453;-67
2024/02/08 01:01:30;;;;;;;706.20;658.27;;;4.20;99.90;;;;;;5007488;28;21071;-66
2024/02/08 01:03:57;;;;;;;726.10;676.93;;;4.20;99.90;;;;;;5011297;28;20988;-66
2024/02/08 01:06:24;;;;;;;728.87;679.77;;;4.20;99.90;;;;;;5011095;28;20837;-66
2024/02/08 01:08:54;;;;;;;728.90;678.90;;;4.20;99.90;;;;;;5010856;28;20835;-67
2024/02/08 01:11:21;;;;;;;736.70;686.13;;;4.20;99.90;;;;;;5009141;28;20548;-65
2024/02/08 01:13:47;;;;;;;734.23;684.07;;;4.20;99.90;;;;;;5011540;28;20845;-67
2024/02/08 01:16:14;;;;;;;742.57;692.07;;;4.20;99.90;;;;;;5010972;28;20449;-68
2024/02/08 01:18:42;;;;;;;744.40;694.10;;;4.20;99.90;;;;;;5011627;28;20460;-68
2024/02/08 01:21:10;;;;;;;732.67;681.80;;;4.20;99.90;;;;;;5010499;28;20465;-69
2024/02/08 01:23:37;;;;;;;722.23;673.43;;;4.20;99.90;;;;;;5008341;28;20568;-69
2024/02/08 01:26:04;;;;;;;733.80;683.80;;;4.20;99.90;;;;;;5014482;28;20463;-69
2024/02/08 01:28:30;;;;;;;741.90;691.97;;;4.20;99.90;;;;;;5014941;28;20886;-68
2024/02/08 01:30:57;;;;;;;720.37;670.37;;;4.30;99.90;;;;;;5013791;28;20449;-67
2024/02/08 01:33:24;;;;;;;743.37;692.47;;;4.20;99.90;;;;;;5013479;28;20484;-66
2024/02/08 01:35:52;;;;;;;752.87;702.43;;;4.20;99.90;;;;;;5014502;28;20463;-67
2024/02/08 01:38:19;;;;;;;737.43;687.37;;;4.20;99.90;;;;;;5014081;28;20503;-66
2024/02/08 01:40:46;;;;;;;735.77;685.80;;;4.20;99.90;;;;;;5011608;28;20448;-67
2024/02/08 01:43:13;;;;;;;743.07;693.27;;;4.20;99.90;;;;;;5009832;28;20487;-67
2024/02/08 01:45:41;;;;;;;739.40;689.63;;;4.20;99.90;;;;;;5014374;28;20468;-66
2024/02/08 01:48:10;;;;;;;732.20;683.40;;;4.20;99.90;;;;;;5012645;28;20453;-66
2024/02/08 01:50:39;;;;;;;703.00;655.77;;;4.10;99.90;;;;;;5013660;28;20531;-68
2024/02/08 01:53:13;;;;;;;716.00;668.00;;;4.20;99.90;;;;;;5010885;28;20470;-68
2024/02/08 01:55:41;;;;;;;716.33;668.40;;;4.10;99.90;;;;;;5013050;28;20464;-69
2024/02/08 01:58:09;;;;;;;707.47;660.17;;;4.10;99.90;;;;;;5012009;28;20549;-69
2024/02/08 02:00:37;;;;;;;709.67;663.47;;;4.20;99.90;;;;;;5012713;28;20453;-69
2024/02/08 02:03:09;;;;;;;707.03;659.23;;;4.20;99.90;;;;;;5012411;28;21004;-69
2024/02/08 02:05:37;;;;;;;714.43;666.90;;;4.20;99.90;;;;;;5014160;28;20492;-68
2024/02/08 02:08:06;;;;;;;702.13;656.07;;;4.20;99.90;;;;;;5014142;28;20532;-69
2024/02/08 02:10:34;;;;;;;706.73;659.03;;;4.20;99.90;;;;;;5013296;28;20457;-68
2024/02/08 02:13:04;;;;;;;706.57;658.37;;;4.20;99.90;;;;;;5013510;28;20480;-69
2024/02/08 02:15:32;;;;;;;714.33;665.93;;;4.40;99.90;;;;;;5013238;28;20453;-69
2024/02/08 02:18:01;;;;;;;728.17;679.67;;;4.20;99.90;;;;;;5013287;28;20453;-68
2024/02/08 02:20:30;;;;;;;722.33;673.23;;;4.20;99.90;;;;;;5012586;28;20453;-69
2024/02/08 02:23:00;;;;;;;720.00;671.73;;;4.20;99.90;;;;;;5013291;28;20485;-69
2024/02/08 02:25:28;;;;;;;704.80;658.87;;;4.20;99.90;;;;;;5013482;28;20464;-69
2024/02/08 02:27:58;;;;;;;690.03;645.33;;;4.20;99.90;;;;;;5013341;28;20456;-69
2024/02/08 02:30:26;;;;;;;709.40;661.57;;;4.20;99.90;;;;;;5013294;28;20453;-69
2024/02/08 02:32:55;;;;;;;707.47;660.57;;;4.30;99.90;;;;;;5013396;28;20476;-68
2024/02/08 02:35:23;;;;;;;708.63;660.17;;;4.30;99.90;;;;;;5013467;28;20459;-68
2024/02/08 02:37:51;;;;;;;725.27;676.27;;;4.30;99.90;;;;;;5013713;28;20966;-68
2024/02/08 02:40:23;;;;;;;717.37;668.10;;;4.30;99.90;;;;;;5013421;28;20449;-68
2024/02/08 02:42:51;;;;;;;718.47;669.17;;;4.30;99.90;;;;;;5012995;28;20469;-68
2024/02/08 02:45:21;;;;;;;750.30;700.80;;;4.30;99.90;;;;;;5013169;28;21051;-69
2024/02/08 02:47:50;;;;;;;732.53;684.37;;;4.30;99.90;;;;;;5013681;28;20453;-68
2024/02/08 02:50:17;;;;;;;743.80;694.27;;;4.30;99.90;;;;;;5012461;28;20453;-67
2024/02/08 02:52:47;;;;;;;735.17;686.17;;;4.30;99.90;;;;;;5012568;28;20686;-66
2024/02/08 02:55:15;;;;;;;712.47;664.40;;;4.30;99.90;;;;;;5013552;28;20457;-67
2024/02/08 02:57:43;;;;;;;719.23;671.13;;;4.30;99.90;;;;;;5013332;28;20539;-67
2024/02/08 03:00:21;;;;;;;673.00;627.37;;;4.40;99.90;;;;;;5013146;28;20453;-67
2024/02/08 03:02:50;;;;;;;659.20;613.93;;;4.30;99.90;;;;;;5012848;28;20500;-67
2024/02/08 03:05:20;;;;;;;658.27;614.17;;;4.40;99.90;;;;;;5012492;28;20527;-66
2024/02/08 03:07:48;;;;;;;651.47;608.37;;;4.40;99.90;;;;;;5010388;28;20536;-66
2024/02/08 03:10:15;;;;;;;631.20;587.87;;;4.40;99.90;;;;;;5012131;28;20453;-67
2024/02/08 03:12:43;;;;;;;634.37;591.07;;;4.50;99.90;;;;;;5007749;28;20892;-66
2024/02/08 03:15:10;;;;;;;638.70;596.00;;;4.40;99.90;;;;;;5012958;28;20445;-68
2024/02/08 03:17:39;;;;;;;639.33;596.40;;;4.40;99.90;;;;;;5008015;28;20479;-67
2024/02/08 03:20:08;;;;;;;625.27;582.53;;;4.40;99.90;;;;;;5014678;28;20445;-69
2024/02/08 03:22:35;;;;;;;645.27;601.73;;;4.40;99.90;;;;;;5011511;28;20556;-69
2024/02/08 03:25:04;;;;;;;624.10;581.53;;;4.40;99.90;;;;;;5010338;28;20571;-68
2024/02/08 03:27:34;;;;;;;627.97;584.00;;;4.30;99.90;;;;;;5012480;28;20492;-69
2024/02/08 03:30:04;;;;;;;644.57;599.77;;;4.40;99.90;;;;;;5012482;28;20457;-67
2024/02/08 03:32:31;;;;;;;629.17;586.40;;;4.40;99.90;;;;;;5012283;28;20557;-66
2024/02/08 03:34:59;;;;;;;620.23;578.43;;;4.30;99.90;;;;;;5012271;28;20461;-66
2024/02/08 03:37:28;;;;;;;614.97;574.80;;;4.30;99.90;;;;;;5012406;28;20460;-67
2024/02/08 03:39:54;;;;;;;597.43;555.30;;;4.30;99.90;;;;;;5012060;28;20515;-66
2024/02/08 03:42:22;;;;;;;602.67;560.47;;;4.40;99.90;;;;;;5011740;28;20492;-66
2024/02/08 03:44:50;;;;;;;610.97;569.27;;;4.30;99.90;;;;;;5012257;28;20510;-66
2024/02/08 03:47:19;;;;;;;609.93;568.70;;;4.40;99.90;;;;;;5012314;28;20456;-66
2024/02/08 03:49:49;;;;;;;577.43;537.73;;;4.30;99.90;;;;;;5011906;28;20544;-66
2024/02/08 03:52:18;;;;;;;568.57;528.10;;;4.30;99.90;;;;;;5004417;28;20672;-66
2024/02/08 03:54:45;;;;;;;583.10;544.33;;;4.30;99.90;;;;;;5005496;28;20949;-67
2024/02/08 03:57:13;;;;;;;604.37;564.27;;;4.30;99.90;;;;;;5012127;28;20883;-67
2024/02/08 03:59:40;;;;;;;578.63;539.57;;;4.30;99.90;;;;;;5011988;28;20449;-67
2024/02/08 04:02:09;;;;;;;582.33;541.83;;;4.30;99.90;;;;;;5011696;28;20935;-67
2024/02/08 04:04:50;;;;;;;578.40;538.10;;;4.40;99.90;;;;;;5004796;28;20485;-66
2024/02/08 04:07:21;;;;;;;587.47;548.17;;;4.40;99.90;;;;;;5007754;28;20457;-67
2024/02/08 04:09:56;;;;;;;576.83;536.50;;;4.40;99.90;;;;;;5003870;28;20540;-66
2024/02/08 04:54:02;;;;;;;567.67;529.67;;;4.40;99.90;;;;;;5008179;28;20447;-68
2024/02/08 04:56:29;;;;;;;567.77;529.23;;;4.50;99.90;;;;;;5014785;28;20445;-69
2024/02/08 04:58:58;;;;;;;559.70;521.97;;;4.50;99.90;;;;;;5015140;28;21102;-69
2024/02/08 05:01:26;;;;;;;539.53;502.60;;;4.40;99.90;;;;;;5014783;28;20449;-69
2024/02/08 05:03:53;;;;;;;531.17;494.67;;;4.40;99.90;;;;;;5014959;28;20875;-68
2024/02/08 05:06:21;;;;;;;546.57;510.27;;;4.40;99.90;;;;;;5014407;28;20940;-68
2024/02/08 05:08:49;;;;;;;502.27;469.57;;;4.40;99.90;;;;;;5014905;28;20449;-69
2024/02/08 05:11:17;;;;;;;473.43;442.90;;;4.50;99.90;;;;;;5017614;28;20459;-68
2024/02/08 05:13:49;;;;;;;474.37;443.77;;;4.40;99.90;;;;;;5014648;28;20468;-69
2024/02/08 05:16:17;;;;;;;475.77;444.67;;;4.40;99.90;;;;;;5010701;28;20444;-68
2024/02/08 05:18:45;;;;;;;495.50;463.30;;;4.40;99.90;;;;;;5014874;28;20453;-68
2024/02/08 05:21:12;;;;;;;491.93;459.17;;;4.40;99.90;;;;;;5014743;28;20453;-68
2024/02/08 05:23:40;;;;;;;483.67;452.20;;;4.40;99.90;;;;;;5015162;28;20497;-68
2024/02/08 05:26:09;;;;;;;470.67;440.60;;;4.40;99.90;;;;;;5014992;28;20449;-68
2024/02/08 05:28:38;;;;;;;491.93;459.77;;;4.40;99.90;;;;;;5015511;28;20903;-69
2024/02/08 05:31:05;;;;;;;483.73;451.90;;;4.40;99.90;;;;;;5015097;28;20937;-69
2024/02/08 05:33:33;;;;;;;488.13;456.90;;;4.40;99.90;;;;;;5018283;28;20487;-68
2024/02/08 05:36:00;;;;;;;494.97;463.87;;;4.40;99.90;;;;;;5011989;28;20481;-69
2024/02/08 05:38:37;;;;;;;489.50;458.90;;;4.50;99.90;;;;;;5009938;28;20456;-68
2024/02/08 05:41:05;;;;;;;448.90;421.60;;;4.50;99.90;;;;;;5014903;28;20525;-69
2024/02/08 05:43:41;;;;;;;441.83;416.63;;;4.40;99.90;;;;;;5013889;28;20469;-68
2024/02/08 05:46:10;;;;;;;423.07;398.63;;;4.40;99.90;;;;;;5007288;28;20453;-69
2024/02/08 05:48:39;;;;;;;427.07;401.83;;;4.40;99.90;;;;;;5011635;28;20461;-68
2024/02/08 05:51:11;;;;;;;425.43;400.70;;;4.30;99.90;;;;;;5014205;28;20453;-69
2024/02/08 05:53:41;;;;;;;445.77;419.60;;;4.30;99.90;;;;;;5013608;28;20473;-67
2024/02/08 05:56:09;;;;;;;428.23;403.57;;;4.30;99.90;;;;;;5010631;28;20540;-67
2024/02/08 05:58:37;;;;;;;431.00;405.43;;;4.30;99.90;;;;;;5008176;28;20453;-68
2024/02/08 06:01:16;;;;;;;427.43;401.37;;;4.30;99.90;;;;;;5017013;28;20448;-68
2024/02/08 06:03:46;;;;;;;419.53;393.90;;;4.30;99.90;;;;;;5010758;28;20619;-69
2024/02/08 06:06:26;;;;;;;422.13;397.17;;;4.30;99.90;;;;;;5012047;28;20511;-69
2024/02/08 06:08:56;;;;;;;429.27;402.30;;;4.30;99.90;;;;;;5006451;28;20971;-69
2024/02/08 06:11:24;;;;;;;418.37;392.17;;;4.30;99.90;;;;;;5012484;28;20901;-69
2024/02/08 06:13:58;;;;;;;421.70;396.90;;;4.30;99.90;;;;;;5012863;28;20469;-69
2024/02/08 06:16:39;;;;;;;430.87;404.27;;;4.30;99.90;;;;;;5013434;28;20448;-67
2024/02/08 06:19:14;;;;;;;430.07;403.47;;;4.40;99.90;;;;;;5012856;28;20445;-67
2024/02/08 06:21:41;;;;;;;419.83;394.37;;;4.40;99.90;;;;;;5008036;28;20507;-66
2024/02/08 06:26:55;;;;;;;401.43;376.87;;;4.40;99.90;;;;;;5013582;28;20428;-67
2024/02/08 06:29:25;;;;;;;396.57;372.30;;;4.30;99.90;;;;;;5013826;28;20809;-67
2024/02/08 06:32:02;;;;;;;400.03;375.53;;;4.30;99.90;;;;;;5011651;28;20477;-67
2024/02/08 06:34:45;;;;;;;403.20;379.20;;;4.40;99.90;;;;;;5010469;28;20453;-66
2024/02/08 06:37:26;;;;;;;407.20;382.30;;;4.30;99.90;;;;;;5006363;28;20445;-67
2024/02/08 06:39:56;;;;;;;408.10;383.77;;;4.40;99.90;;;;;;5009438;28;20463;-69
2024/02/08 06:42:40;;;;;;;412.53;388.10;;;4.40;99.90;;;;;;5010367;28;20996;-69
2024/02/08 06:45:44;;;;;;;413.00;389.13;;;4.40;99.90;;;;;;5012977;28;20485;-69
2024/02/08 07:37:44;;;;;;;433.17;403.87;;;4.60;99.90;;;;;;4965434;28;20453;-69
2024/02/08 07:40:24;;;;;;;421.83;393.97;;;4.50;99.90;;;;;;5012135;28;20453;-69
2024/02/08 07:42:53;;;;;;;432.20;403.70;;;4.60;99.90;;;;;;5004639;28;20476;-69
2024/02/08 07:45:26;;;;;;;435.57;405.43;;;4.60;99.90;;;;;;5011840;28;20497;-69
2024/02/08 07:48:08;;;;;;;436.63;408.00;;;4.60;99.90;;;;;;5011863;28;20460;-69
2024/02/08 07:50:37;;;;;;;440.10;410.50;;;4.60;99.90;;;;;;5004468;28;20589;-69
2024/02/08 07:53:08;;;;;;;447.90;418.60;;;4.70;99.90;;;;;;5011145;28;20504;-69
2024/02/08 07:55:57;;;;;;;452.30;424.17;;;4.70;99.90;;;;;;5011598;28;20812;-69
2024/02/08 07:58:27;;;;;;;437.07;410.00;;;4.70;99.90;;;;;;5011985;28;20457;-69
2024/02/08 08:00:56;;;;;;;445.77;417.07;;;4.70;99.90;;;;;;5011830;28;20479;-69
2024/02/08 08:03:31;;;;;;;440.40;411.37;;;4.70;99.90;;;;;;5011674;28;20473;-68
2024/02/08 08:05:59;;;;;;;434.47;406.73;;;4.80;99.90;;;;;;5011555;28;20884;-69
2024/02/08 08:08:28;;;;;;;417.07;391.37;;;4.80;99.90;;;;;;5011796;28;20991;-69
2024/02/08 08:11:02;;;;;;;420.57;393.13;;;4.80;99.90;;;;;;5011118;28;21007;-69
2024/02/08 08:18:58;;;;;;;451.27;423.77;;;4.80;99.90;;;;;;5012673;28;20432;-68
2024/02/08 08:21:26;;;;;;;439.93;414.23;;;4.90;99.90;;;;;;5014269;28;20467;-68
2024/02/08 08:23:59;;;;;;;511.33;482.43;;;4.90;99.90;;;;;;5016158;28;20476;-67
2024/02/08 08:26:37;;;;;;;531.80;501.77;;;5.00;99.90;;;;;;5012997;28;20453;-68
2024/02/08 08:29:13;;;;;;;564.30;531.50;;;5.00;99.90;;;;;;5015600;28;20453;-68
2024/02/08 08:31:51;;;;;;;517.77;488.30;;;5.10;99.90;;;;;;5011597;28;20449;-66
2024/02/08 08:37:07;;;;;;;571.83;540.03;;;5.00;99.90;;;;;;5015809;28;20439;-65
2024/02/08 08:40:20;;;;;;;645.17;609.00;;;5.00;99.90;;;;;;5015817;28;20460;-66
2024/02/08 08:42:50;;;;;;;666.30;628.83;;;5.10;99.90;;;;;;5007557;28;20476;-65
2024/02/08 08:45:18;;;;;;;730.30;687.33;;;5.10;99.90;;;;;;5015769;28;20526;-66
2024/02/08 08:47:45;;;;;;;693.93;653.90;;;5.30;99.90;;;;;;5016110;28;20471;-66
2024/02/08 08:50:18;;;;;;;704.70;663.83;;;5.40;99.90;;;;;;5015858;28;20453;-64
2024/02/08 08:52:47;;;;;;;618.43;585.47;;;5.40;99.90;;;;;;5014738;28;20488;-65
2024/02/08 08:55:17;;;;;;;620.67;587.97;;;5.50;99.90;;;;;;5015114;28;20460;-65
2024/02/08 08:57:44;;;;;;;660.40;624.63;;;5.40;99.90;;;;;;5015251;28;20457;-65
2024/02/08 09:00:20;;;;;;;591.37;560.67;;;5.70;99.90;;;;;;5014072;28;20449;-66
2024/02/08 09:02:50;;;;;;;599.43;568.53;;;5.60;99.90;;;;;;5006169;28;20473;-65
2024/02/08 09:05:20;;;;;;;680.07;643.80;;;5.60;99.90;;;;;;5014859;28;20484;-65
2024/02/08 09:07:47;;;;;;;662.03;627.53;;;5.70;99.90;;;;;;5014823;28;20459;-66
2024/02/08 09:10:15;;;;;;;639.40;606.10;;;5.80;99.90;;;;;;5014132;28;20459;-66
2024/02/08 09:12:58;;;;;;;563.47;535.87;;;5.80;99.90;;;;;;5012642;28;20488;-66
2024/02/08 09:15:27;;;;;;;564.90;537.37;;;5.80;99.90;;;;;;5016494;28;20597;-66
2024/02/08 09:17:58;;;;;;;568.17;541.30;;;5.70;99.90;;;;;;5017712;28;20877;-66
2024/02/08 09:20:28;;;;;;;501.37;478.47;;;5.70;99.90;;;;;;5019256;28;20827;-66
2024/02/08 09:22:55;;;;;;;478.13;456.63;;;5.70;99.90;;;;;;5017303;28;20480;-66
2024/02/08 09:25:23;;;;;;;447.93;428.00;;;5.70;99.90;;;;;;5018797;28;20483;-66
2024/02/08 09:27:53;;;;;;;524.00;500.50;;;5.70;99.90;;;;;;5015649;28;20453;-65
2024/02/08 09:30:37;;;;;;;558.43;533.43;;;5.80;99.90;;;;;;5017510;28;20449;-66
2024/02/08 09:33:13;;;;;;;569.53;543.30;;;5.80;99.90;;;;;;5017231;28;20468;-66
2024/02/08 09:35:41;;;;;;;595.17;567.87;;;5.80;99.90;;;;;;5015713;28;20450;-65
2024/02/08 09:38:09;;;;;;;611.93;583.80;;;5.80;99.90;;;;;;5016388;28;20858;-65
2024/02/08 09:40:45;;;;;;;640.33;609.83;;;5.80;99.90;;;;;;5016597;28;20467;-66
2024/02/08 09:43:17;;;;;;;620.80;591.87;;;5.80;99.90;;;;;;5017119;28;20519;-66
2024/02/08 09:45:45;;;;;;;683.07;649.47;;;5.70;99.90;;;;;;5016585;28;20508;-66
2024/02/08 09:48:25;;;;;;;702.63;667.23;;;5.70;99.90;;;;;;5015816;28;20457;-65
2024/02/08 09:50:59;;;;;;;715.67;678.80;;;5.70;99.90;;;;;;5015547;28;21040;-66
2024/02/08 09:53:29;;;;;;;729.40;690.80;;;5.70;99.90;;;;;;5016224;28;20465;-66
2024/02/08 09:56:01;;;;;;;702.63;666.37;;;5.70;99.90;;;;;;5014980;28;20448;-66
2024/02/08 09:58:34;;;;;;;741.37;701.27;;;5.70;99.90;;;;;;5015268;28;20447;-66
2024/02/08 10:01:02;;;;;;;765.07;721.87;;;5.70;99.90;;;;;;5014496;28;20476;-65
2024/02/08 10:03:35;;;;;;;765.90;723.73;;;5.70;99.90;;;;;;5015372;28;20500;-66
2024/02/08 10:06:13;;;;;;;796.17;750.47;;;5.60;99.90;;;;;;5014338;28;20484;-66
2024/02/08 10:08:51;;;;;;;829.70;778.40;;;5.60;99.90;;;;;;5016188;28;20498;-66
2024/02/08 10:11:36;;;;;;;822.27;770.57;;;5.60;99.90;;;;;;5016045;28;20460;-65
2024/02/08 10:14:02;;;;;;;833.47;778.97;;;5.60;99.90;;;;;;5015616;28;20473;-67
2024/02/08 10:16:47;;;;;;;838.00;781.30;;;5.60;99.90;;;;;;5016529;28;20941;-68
2024/02/08 10:19:27;;;;;;;840.90;782.40;;;5.70;99.90;;;;;;5016754;28;20528;-67
2024/02/08 10:21:57;;;;;;;837.53;779.83;;;5.70;99.90;;;;;;5020065;28;20487;-68
2024/02/08 10:24:44;;;;;;;844.87;785.77;;;5.70;99.90;;;;;;5023609;28;20445;-68
2024/02/08 10:27:19;;;;;;;842.50;781.67;;;5.60;99.90;;;;;;5021161;28;20449;-68
2024/02/08 10:29:46;;;;;;;838.43;776.83;;;5.70;99.90;;;;;;5023308;28;20452;-68
2024/02/08 10:32:18;;;;;;;825.70;761.90;;;5.60;99.90;;;;;;5023702;28;20476;-68
2024/02/08 10:34:52;;;;;;;836.77;769.40;;;5.70;99.90;;;;;;5024151;28;21030;-69
2024/02/08 10:37:46;;;;;;;837.00;769.90;;;5.70;99.90;;;;;;5021192;28;20453;-68
2024/02/08 10:40:29;;;;;;;825.30;759.20;;;5.70;99.90;;;;;;5023268;28;20453;-68
2024/02/08 10:42:58;;;;;;;829.23;760.77;;;5.70;99.90;;;;;;5024065;28;20468;-68
2024/02/08 10:45:25;;;;;;;836.03;766.73;;;5.70;99.90;;;;;;5023377;28;20859;-68
2024/02/08 10:47:55;;;;;;;837.83;770.07;;;5.70;99.90;;;;;;5024307;28;20539;-68
2024/02/08 10:50:27;;;;;;;835.87;767.20;;;5.70;99.90;;;;;;5022709;28;20481;-67
2024/02/08 10:53:00;;;;;;;850.37;779.87;;;5.60;99.90;;;;;;5023176;28;20479;-68
2024/02/08 10:55:36;;;;;;;847.23;777.03;;;5.60;99.90;;;;;;5023354;28;20452;-68
2024/02/08 11:01:32;;;;;;;872.33;799.77;;;5.50;99.90;;;;;;5087697;27;20909;-66
2024/02/08 11:04:00;;;;;;;889.17;813.97;;;5.50;99.90;;;;;;5075401;28;20481;-65
2024/02/08 11:06:31;;;;;;;926.33;850.10;;;5.50;99.90;;;;;;5078378;28;20460;-65
2024/02/08 11:09:14;;;;;;;954.47;875.60;;;5.60;99.90;;;;;;5075393;28;20446;-66
2024/02/08 11:11:46;;;;;;;935.60;856.67;;;5.60;99.90;;;;;;5077914;28;20446;-66
2024/02/08 11:14:18;;;;;;;940.80;859.93;;;5.60;99.90;;;;;;5078445;28;20474;-65
2024/02/08 11:16:52;;;;;;;962.57;878.97;;;5.60;99.90;;;;;;5080122;28;20450;-65
2024/02/08 11:19:19;;;;;;;942.40;860.13;;;5.60;99.90;;;;;;5077295;28;20475;-65
2024/02/08 11:21:49;;;;;;;971.87;886.67;;;5.50;99.90;;;;;;5079770;28;20451;-66
2024/02/08 11:24:38;;;;;;;977.43;890.03;;;5.50;99.90;;;;;;5075942;28;20972;-65
2024/02/08 11:27:05;;;;;;;986.67;896.40;;;5.60;99.90;;;;;;5079219;28;20540;-66
2024/02/08 11:29:45;;;;;;;975.03;884.83;;;5.60;99.90;;;;;;5081222;28;20444;-65
2024/02/08 11:32:16;;;;;;;985.40;895.10;;;5.60;99.90;;;;;;5076444;28;20541;-64
2024/02/08 11:34:44;;;;;;;1002.10;910.57;;;5.70;99.90;;;;;;5081408;28;20466;-65
2024/02/08 11:37:17;;;;;;;1001.17;910.70;;;5.60;99.90;;;;;;5079966;28;20542;-65
2024/02/08 11:39:46;;;;;;;980.80;890.43;;;5.50;99.90;;;;;;5081338;28;20512;-65
2024/02/08 11:42:16;;;;;;;999.57;907.47;;;5.60;99.90;;;;;;5076577;28;20478;-64
2024/02/08 11:44:43;;;;;;;954.20;862.70;;;5.70;99.90;;;;;;5080185;28;20515;-65
2024/02/08 11:47:23;;;;;;;942.87;851.67;;;5.70;99.90;;;;;;5078734;28;20890;-65
2024/02/08 11:50:00;;;;;;;935.27;844.20;;;5.60;99.90;;;;;;5080843;28;20446;-65
2024/02/08 11:52:27;;;;;;;928.00;836.23;;;5.60;99.90;;;;;;5080895;28;20510;-66
2024/02/08 11:55:05;;;;;;;963.27;869.53;;;5.70;99.90;;;;;;5080871;28;20450;-66
2024/02/08 11:57:36;;;;;;;932.23;839.97;;;5.60;99.90;;;;;;5076031;28;20537;-65
2024/02/08 12:00:15;;;;;;;1026.90;931.63;;;5.70;99.90;;;;;;5078634;28;20552;-65
2024/02/08 12:02:47;;;;;;;1004.20;909.47;;;5.80;99.90;;;;;;5079043;28;20535;-66
2024/02/08 12:05:17;;;;;;;983.17;890.57;;;5.80;99.90;;;;;;5076555;28;20805;-66
2024/02/08 12:07:45;;;;;;;978.47;887.70;;;5.90;99.90;;;;;;5080108;28;20451;-66
2024/02/08 12:10:15;;;;;;;966.57;875.17;;;5.90;99.90;;;;;;5074798;28;20818;-66
2024/02/08 12:12:44;;;;;;;959.37;869.07;;;6.10;99.90;;;;;;5066619;28;20881;-66
2024/02/08 12:15:12;;;;;;;947.30;856.63;;;6.00;99.90;;;;;;5064621;28;20461;-66
2024/02/08 12:17:40;;;;;;;969.27;876.30;;;6.10;99.90;;;;;;5066892;28;20522;-66
2024/02/08 12:20:10;;;;;;;963.53;871.80;;;6.20;99.90;;;;;;5064539;28;20566;-66
2024/02/08 12:22:41;;;;;;;977.10;883.80;;;6.20;99.90;;;;;;5066110;28;20446;-65
2024/02/08 12:25:15;;;;;;;955.97;868.67;;;6.30;99.90;;;;;;5064961;28;20455;-66
2024/02/08 12:27:48;;;;;;;949.13;861.03;;;6.10;99.90;;;;;;5066599;28;20457;-66
2024/02/08 12:30:21;;;;;;;936.73;848.37;;;6.20;99.90;;;;;;5062807;28;20448;-66
2024/02/08 12:32:50;;;;;;;953.57;863.57;;;6.10;99.90;;;;;;5065849;28;20496;-65
2024/02/08 12:35:20;;;;;;;951.03;859.63;;;6.00;99.90;;;;;;5065673;28;20474;-66
2024/02/08 12:37:48;;;;;;;956.37;864.90;;;6.10;99.90;;;;;;5066186;28;20443;-66
2024/02/08 12:40:18;;;;;;;955.70;863.90;;;6.10;99.90;;;;;;5064795;28;20570;-66
2024/02/08 12:42:46;;;;;;;943.17;851.47;;;6.00;99.90;;;;;;5066316;28;20471;-66
2024/02/08 12:45:17;;;;;;;953.07;860.97;;;6.00;99.90;;;;;;5061704;28;20447;-66
2024/02/08 12:47:49;;;;;;;958.03;865.57;;;6.00;99.90;;;;;;5066286;28;20447;-66
2024/02/08 12:50:17;;;;;;;959.57;866.77;;;6.00;99.90;;;;;;5062768;28;20471;-67
2024/02/08 12:52:47;;;;;;;949.17;857.33;;;6.10;99.90;;;;;;5065925;28;20858;-66
2024/02/08 12:55:22;;;;;;;945.93;852.77;;;6.10;99.90;;;;;;5061928;28;20474;-66
2024/02/08 12:58:02;;;;;;;940.03;846.77;;;6.10;99.90;;;;;;5066279;28;20442;-66
2024/02/08 13:00:33;;;;;;;945.30;851.40;;;6.20;99.90;;;;;;5065123;28;20474;-66
2024/02/08 13:03:05;;;;;;;930.47;837.40;;;6.30;99.90;;;;;;5064658;28;20841;-66
2024/02/08 13:05:35;;;;;;;928.60;835.77;;;6.40;99.90;;;;;;5061877;28;20461;-65
2024/02/08 13:08:06;;;;;;;923.90;831.70;;;6.40;99.90;;;;;;5064147;28;20454;-66
2024/02/08 13:10:33;;;;;;;932.53;840.70;;;6.30;99.90;;;;;;5061690;28;20446;-66
2024/02/08 13:13:00;;;;;;;939.80;847.77;;;6.40;99.90;;;;;;5064312;28;20552;-66
2024/02/08 13:15:33;;;;;;;934.60;842.10;;;6.40;99.90;;;;;;5064893;28;20964;-66
2024/02/08 13:18:02;;;;;;;938.40;846.20;;;6.40;99.90;;;;;;5064300;28;20594;-65
2024/02/08 13:20:29;;;;;;;1040.97;946.37;;;6.40;99.90;;;;;;5064703;28;20466;-66
2024/02/08 13:22:56;;;;;;;1032.63;936.37;;;6.40;99.90;;;;;;5063627;28;20619;-66
2024/02/08 13:25:28;;;;;;;1021.63;925.83;;;6.50;99.90;;;;;;5065018;28;20866;-66
2024/02/08 13:27:58;;;;;;;1078.77;979.40;;;6.40;99.90;;;;;;5061141;28;20818;-66
2024/02/08 13:30:25;;;;;;;1087.47;988.17;;;6.40;99.90;;;;;;5064592;28;20448;-64
2024/02/08 13:32:53;;;;;;;1069.73;971.33;;;6.50;99.90;;;;;;5060453;28;20493;-64
2024/02/08 13:35:20;;;;;;;1052.87;955.17;;;6.50;99.90;;;;;;5064218;28;20451;-65
2024/02/08 13:37:48;;;;;;;1063.60;965.23;;;6.50;99.90;;;;;;5064747;28;20455;-65
2024/02/08 13:40:15;;;;;;;1074.37;975.00;;;6.50;99.90;;;;;;5063425;28;20479;-65
2024/02/08 13:42:43;;;;;;;1049.70;951.20;;;6.70;99.90;;;;;;5064859;28;20558;-65
2024/02/08 13:45:13;;;;;;;1023.63;927.00;;;6.60;99.90;;;;;;5062998;28;20451;-66
2024/02/08 13:47:40;;;;;;;1002.73;906.43;;;6.70;99.90;;;;;;5064976;28;20533;-66
2024/02/08 13:50:11;;;;;;;1044.27;946.10;;;6.70;99.90;;;;;;5062862;28;20447;-65
2024/02/08 13:52:38;;;;;;;1061.80;964.10;;;6.70;99.90;;;;;;5064686;28;20470;-65
2024/02/08 13:55:07;;;;;;;1062.57;964.57;;;6.70;99.90;;;;;;5062803;28;20552;-66
2024/02/08 13:57:34;;;;;;;1048.57;950.50;;;6.80;99.90;;;;;;5061292;28;20443;-66
2024/02/08 14:00:04;;;;;;;1039.27;942.20;;;6.80;99.90;;;;;;5063531;28;20481;-66
2024/02/08 14:02:36;;;;;;;1035.27;937.77;;;6.90;99.90;;;;;;5064388;28;20470;-65
2024/02/08 14:05:16;;;;;;;1038.27;940.07;;;6.90;99.90;;;;;;5063129;28;20453;-66
2024/02/08 14:07:47;;;;;;;1023.23;925.30;;;7.00;99.90;;;;;;5063787;28;20455;-66
2024/02/08 14:10:17;;;;;;;999.50;903.03;;;7.00;99.90;;;;;;5060327;28;20475;-66
2024/02/08 14:12:48;;;;;;;1016.40;920.13;;;7.00;99.90;;;;;;5063838;28;21051;-65
2024/02/08 14:15:21;;;;;;;1028.33;932.47;;;7.00;99.90;;;;;;5060628;28;20451;-66
2024/02/08 14:17:54;;;;;;;1017.13;920.30;;;7.10;99.90;;;;;;5063920;28;20443;-66
2024/02/08 14:20:41;;;;;;;993.23;897.27;;;7.10;99.90;;;;;;5063336;28;20474;-65